Vision — WDF6306 — position and weather

sailwx.info

Track history (hours):
 
Tides and Currents Weather Stations Pressure Air Temp Water Temp Dewpoint Dewpoint Depression Visibility Wind Speed Wind Dir Waves Ship Positions

Vision

Owner: INTREPID SHIP MANAGEMENT, JACKSONVILLE, FL. More information available from US FCC via Universal Licensing System and Coast Guard Vessel Documentation Center.

Last reported at 2018-Apr-21 02:24 UTC. Time now 2018-Apr-21 06:01 UTC.
Position N 38°02' W 122°08'.

Length 207 m; draft 7.7 m.

Type: Towing. MMSI: 366904000.

Date/timePositionNaut miles runAvg speedWind from/ knotsBaromVisibWave heightAir tempDewpointWater temp
2018-Apr-21 02:24N 38°02' W 122°08'0 0.0
2018-Apr-20 19:56N 38°02' W 122°08'0 0.0
2018-Apr-20 19:30N 38°02' W 122°08'2 4.2
2018-Apr-20 19:00N 38°03' W 122°10'4 8.2
2018-Apr-20 18:30N 38°04' W 122°16'4 8.6
2018-Apr-20 18:00N 38°03' W 122°21'5 9.0
2018-Apr-20 17:30N 37°59' W 122°25'4 8.2
2018-Apr-20 17:00N 37°56' W 122°27'4 8.6
2018-Apr-20 16:30N 37°52' W 122°25'4 7.8
2018-Apr-20 16:00N 37°49' W 122°29'4 8.2
2018-Apr-20 15:30N 37°47' W 122°33'5 9.2
2018-Apr-20 15:00N 37°46' W 122°39'5 9.6
2018-Apr-20 14:30N 37°43' W 122°43'4 7.9
2018-Apr-20 14:00N 37°40' W 122°47'4 7.4
2018-Apr-20 13:30N 37°38' W 122°51'4 7.6
2018-Apr-20 13:00N 37°36' W 122°55'4 7.4
2018-Apr-20 12:30N 37°34' W 122°59'4 7.3
2018-Apr-20 12:00N 37°33' W 123°03'4 7.5
2018-Apr-20 11:28N 37°32' W 123°08'11 8.8
2018-Apr-20 10:15N 37°32' W 123°22'611.3
2018-Apr-20 09:43N 37°32' W 123°29'211.3
2018-Apr-20 09:30N 37°34' W 123°32'1111.7
2018-Apr-20 08:35N 37°41' W 123°42'111.9
2018-Apr-20 08:30N 37°42' W 123°43'612.0
2018-Apr-20 07:59N 37°46' W 123°49'611.7
2018-Apr-20 07:30N 37°49' W 123°54'611.4
2018-Apr-20 07:00N 37°53' W 124°00'611.7
2018-Apr-20 06:29N 37°57' W 124°06'15811.7
2018-Apr-19 17:00N 40°18' W 125°36'47611.9 360 / 151027.010.8 12.8 13.9
2018-Apr-18 00:52N 48°14' W 125°16'411.2
2018-Apr-18 00:29N 48°17' W 125°13'510.9
2018-Apr-18 00:00N 48°22' W 125°09'611.2
2018-Apr-17 23:29N 48°27' W 125°05'510.4
2018-Apr-17 23:00N 48°30' W 124°59'510.7
2018-Apr-17 22:30N 48°30' W 124°51'510.5
2018-Apr-17 22:00N 48°30' W 124°43'510.4
2018-Apr-17 21:30N 48°28' W 124°36'610.9
2018-Apr-17 21:00N 48°26' W 124°28'611.0
2018-Apr-17 20:30N 48°24' W 124°21'611.4
2018-Apr-17 20:00N 48°22' W 124°13'612.3
2018-Apr-17 19:30N 48°20' W 124°04'611.7
2018-Apr-17 19:00N 48°18' W 123°56'612.2
2018-Apr-17 18:29N 48°17' W 123°47'2410.9
2018-Apr-17 16:20N 48°11' W 123°12'512.7
2018-Apr-17 15:54N 48°13' W 123°04'512.4
2018-Apr-17 15:28N 48°12' W 122°56'1712.3
2018-Apr-17 14:07N 48°02' W 122°37'213.9
2018-Apr-17 13:59N 47°60' W 122°36'612.9
2018-Apr-17 13:31N 47°56' W 122°29'612.2
2018-Apr-17 13:00N 47°50' W 122°27'612.5
2018-Apr-17 12:31N 47°43' W 122°26'611.7
2018-Apr-17 12:01N 47°38' W 122°25'3 5.1
2018-Apr-17 11:31N 47°35' W 122°26'611.5
2018-Apr-17 11:01N 47°29' W 122°24'612.3
2018-Apr-17 10:30N 47°24' W 122°21'611.8
2018-Apr-17 10:01N 47°19' W 122°27'4 7.6
2018-Apr-17 09:30N 47°16' W 122°24'0 0.2
2018-Apr-17 09:00N 47°16' W 122°24'0 0.0
2018-Apr-17 08:30N 47°16' W 122°24'0 0.0
2018-Apr-17 08:00N 47°16' W 122°24'0 0.0
2018-Apr-17 07:24N 47°16' W 122°24'0 0.0
2018-Apr-17 07:00N 47°16' W 122°24'0 0.0
2018-Apr-17 06:30N 47°16' W 122°24'0 0.0
2018-Apr-17 06:00N 47°16' W 122°24'0 0.0
2018-Apr-17 05:30N 47°16' W 122°24'0 0.0
2018-Apr-17 05:00N 47°16' W 122°24'0 0.0
2018-Apr-17 04:30N 47°16' W 122°24'0 0.0
2018-Apr-17 04:00N 47°16' W 122°24'0 0.0
2018-Apr-17 03:30N 47°16' W 122°24'0 0.0
2018-Apr-17 03:00N 47°16' W 122°24'0 0.0
2018-Apr-17 02:30N 47°16' W 122°24'0 0.0
2018-Apr-17 02:00N 47°16' W 122°24'0 0.0
2018-Apr-17 01:30N 47°16' W 122°24'0 0.0
2018-Apr-17 01:00N 47°16' W 122°24'0 0.0
2018-Apr-17 00:30N 47°16' W 122°24'0 0.0
2018-Apr-17 00:00N 47°16' W 122°24'0 0.0
2018-Apr-16 23:24N 47°16' W 122°24'0 0.0
2018-Apr-16 23:00N 47°16' W 122°24'0 0.0
2018-Apr-16 22:24N 47°16' W 122°24'0 0.0
2018-Apr-16 22:00N 47°16' W 122°24'0 0.0
2018-Apr-16 21:30N 47°16' W 122°24'0 0.0
2018-Apr-16 21:00N 47°16' W 122°24'0 0.0
2018-Apr-16 20:30N 47°16' W 122°24'0 0.0
2018-Apr-16 20:00N 47°16' W 122°24'0 0.0
2018-Apr-16 19:30N 47°16' W 122°24'0 0.0
2018-Apr-16 18:54N 47°16' W 122°24'0 0.0
2018-Apr-16 18:30N 47°16' W 122°24'0 0.0
2018-Apr-16 18:00N 47°16' W 122°24'0 0.0
2018-Apr-16 17:30N 47°16' W 122°24'0 0.0
2018-Apr-16 17:00N 47°16' W 122°24'0 0.0
2018-Apr-16 16:24N 47°16' W 122°24'0 0.0
2018-Apr-16 16:01N 47°16' W 122°24'0 0.7
2018-Apr-16 15:31N 47°16' W 122°24'1 2.6
2018-Apr-16 15:00N 47°17' W 122°26'0 0.4
2018-Apr-16 14:30N 47°17' W 122°25'1 1.4
2018-Apr-16 14:00N 47°17' W 122°26'4 7.5
2018-Apr-16 13:31N 47°21' W 122°25'4 8.9
2018-Apr-16 13:01N 47°25' W 122°23'612.1
2018-Apr-16 12:30N 47°31' W 122°26'611.3
2018-Apr-16 12:00N 47°37' W 122°25'4 8.7
2018-Apr-16 11:30N 47°40' W 122°28'612.9
2018-Apr-16 11:00N 47°47' W 122°27'612.5
2018-Apr-16 10:31N 47°53' W 122°29'612.7
2018-Apr-16 10:00N 47°58' W 122°35'713.2
2018-Apr-16 09:30N 48°04' W 122°39'713.9
2018-Apr-16 09:00N 48°10' W 122°44'712.8
2018-Apr-16 08:30N 48°16' W 122°47'612.0
2018-Apr-16 08:00N 48°22' W 122°46'612.3
2018-Apr-16 07:31N 48°28' W 122°44'510.2
2018-Apr-16 07:00N 48°31' W 122°39'3 5.8
2018-Apr-16 06:29N 48°31' W 122°34'0 0.0
2018-Apr-15 19:39N 48°31' W 122°34'0 0.1
2018-Apr-15 19:18N 48°31' W 122°34'0 0.1
2018-Apr-15 18:54N 48°31' W 122°34'0 0.0
2018-Apr-15 18:30N 48°31' W 122°34'0 0.0
2018-Apr-15 18:00N 48°31' W 122°34'0 0.2
2018-Apr-15 16:40N 48°31' W 122°35'0 0.0
2018-Apr-14 08:18N 48°31' W 122°35'0 0.1
2018-Apr-14 08:00N 48°31' W 122°35'0 0.0
2018-Apr-14 06:54N 48°31' W 122°35'0 0.0
2018-Apr-13 14:24N 48°31' W 122°35'0 0.0
2018-Apr-13 14:00N 48°31' W 122°35'0 0.1
2018-Apr-13 13:30N 48°31' W 122°35'8 0.8
2018-Apr-13 04:04N 48°27' W 122°45'111.3
2018-Apr-13 04:00N 48°26' W 122°46'611.5
2018-Apr-13 03:30N 48°22' W 122°52'2411.8
2018-Apr-13 01:29N 48°11' W 123°23'810.2
2018-Apr-13 00:42N 48°13' W 123°34'410.8
2018-Apr-13 00:22N 48°14' W 123°40'1110.9
2018-Apr-12 23:24N 48°14' W 123°56'511.1
2018-Apr-12 23:00N 48°15' W 124°02'612.1
2018-Apr-12 22:30N 48°18' W 124°10'713.6
2018-Apr-12 22:00N 48°21' W 124°19'713.6
2018-Apr-12 21:30N 48°24' W 124°29'713.4
2018-Apr-12 21:00N 48°27' W 124°38'713.1
2018-Apr-12 20:30N 48°28' W 124°47'612.3
2018-Apr-12 20:00N 48°28' W 124°57'611.2
2018-Apr-12 19:30N 48°25' W 125°03'712.4
2018-Apr-12 18:57N 48°19' W 125°08'612.2
2018-Apr-12 18:26N 48°13' W 125°12'9311.6
2018-Apr-12 10:25N 46°41' W 125°30'912.2
2018-Apr-12 09:42N 46°32' W 125°30'211.9
2018-Apr-12 09:30N 46°30' W 125°31'611.9
2018-Apr-12 08:59N 46°24' W 125°31'611.9
2018-Apr-12 08:29N 46°18' W 125°31'611.8
2018-Apr-12 08:00N 46°12' W 125°32'611.8
2018-Apr-12 07:30N 46°06' W 125°33'  
Track history (hours):
 
Tides and Currents Weather Stations Pressure Air Temp Water Temp Dewpoint Dewpoint Depression Visibility Wind Speed Wind Dir Waves Ship Positions

Vision

Owner: INTREPID SHIP MANAGEMENT, JACKSONVILLE, FL. More information available from US FCC via Universal Licensing System and Coast Guard Vessel Documentation Center.

Last reported at 2018-Apr-21 02:24 UTC. Time now 2018-Apr-21 06:01 UTC.
Position N 38°02' W 122°08'.

Length 207 m; draft 7.7 m.

Type: Towing. MMSI: 366904000.

Date/timePositionNaut miles runAvg speedWind from/ knotsBaromVisibWave heightAir tempDewpointWater temp
2018-Apr-21 02:24N 38°02' W 122°08'0 0.0
2018-Apr-20 19:56N 38°02' W 122°08'0 0.0
2018-Apr-20 19:30N 38°02' W 122°08'2 4.2
2018-Apr-20 19:00N 38°03' W 122°10'4 8.2
2018-Apr-20 18:30N 38°04' W 122°16'4 8.6
2018-Apr-20 18:00N 38°03' W 122°21'5 9.0
2018-Apr-20 17:30N 37°59' W 122°25'4 8.2
2018-Apr-20 17:00N 37°56' W 122°27'4 8.6
2018-Apr-20 16:30N 37°52' W 122°25'4 7.8
2018-Apr-20 16:00N 37°49' W 122°29'4 8.2
2018-Apr-20 15:30N 37°47' W 122°33'5 9.2
2018-Apr-20 15:00N 37°46' W 122°39'5 9.6
2018-Apr-20 14:30N 37°43' W 122°43'4 7.9
2018-Apr-20 14:00N 37°40' W 122°47'4 7.4
2018-Apr-20 13:30N 37°38' W 122°51'4 7.6
2018-Apr-20 13:00N 37°36' W 122°55'4 7.4
2018-Apr-20 12:30N 37°34' W 122°59'4 7.3
2018-Apr-20 12:00N 37°33' W 123°03'4 7.5
2018-Apr-20 11:28N 37°32' W 123°08'11 8.8
2018-Apr-20 10:15N 37°32' W 123°22'611.3
2018-Apr-20 09:43N 37°32' W 123°29'211.3
2018-Apr-20 09:30N 37°34' W 123°32'1111.7
2018-Apr-20 08:35N 37°41' W 123°42'111.9
2018-Apr-20 08:30N 37°42' W 123°43'612.0
2018-Apr-20 07:59N 37°46' W 123°49'611.7
2018-Apr-20 07:30N 37°49' W 123°54'611.4
2018-Apr-20 07:00N 37°53' W 124°00'611.7
2018-Apr-20 06:29N 37°57' W 124°06'15811.7
2018-Apr-19 17:00N 40°18' W 125°36'47611.9 360 / 151027.010.8 12.8 13.9
2018-Apr-18 00:52N 48°14' W 125°16'411.2
2018-Apr-18 00:29N 48°17' W 125°13'510.9
2018-Apr-18 00:00N 48°22' W 125°09'611.2
2018-Apr-17 23:29N 48°27' W 125°05'510.4
2018-Apr-17 23:00N 48°30' W 124°59'510.7
2018-Apr-17 22:30N 48°30' W 124°51'510.5
2018-Apr-17 22:00N 48°30' W 124°43'510.4
2018-Apr-17 21:30N 48°28' W 124°36'610.9
2018-Apr-17 21:00N 48°26' W 124°28'611.0
2018-Apr-17 20:30N 48°24' W 124°21'611.4
2018-Apr-17 20:00N 48°22' W 124°13'612.3
2018-Apr-17 19:30N 48°20' W 124°04'611.7
2018-Apr-17 19:00N 48°18' W 123°56'612.2
2018-Apr-17 18:29N 48°17' W 123°47'2410.9
2018-Apr-17 16:20N 48°11' W 123°12'512.7
2018-Apr-17 15:54N 48°13' W 123°04'512.4
2018-Apr-17 15:28N 48°12' W 122°56'1712.3
2018-Apr-17 14:07N 48°02' W 122°37'213.9
2018-Apr-17 13:59N 47°60' W 122°36'612.9
2018-Apr-17 13:31N 47°56' W 122°29'612.2
2018-Apr-17 13:00N 47°50' W 122°27'612.5
2018-Apr-17 12:31N 47°43' W 122°26'611.7
2018-Apr-17 12:01N 47°38' W 122°25'3 5.1
2018-Apr-17 11:31N 47°35' W 122°26'611.5
2018-Apr-17 11:01N 47°29' W 122°24'612.3
2018-Apr-17 10:30N 47°24' W 122°21'611.8
2018-Apr-17 10:01N 47°19' W 122°27'4 7.6
2018-Apr-17 09:30N 47°16' W 122°24'0 0.2
2018-Apr-17 09:00N 47°16' W 122°24'0 0.0
2018-Apr-17 08:30N 47°16' W 122°24'0 0.0
2018-Apr-17 08:00N 47°16' W 122°24'0 0.0
2018-Apr-17 07:24N 47°16' W 122°24'0 0.0
2018-Apr-17 07:00N 47°16' W 122°24'0 0.0
2018-Apr-17 06:30N 47°16' W 122°24'0 0.0
2018-Apr-17 06:00N 47°16' W 122°24'0 0.0
2018-Apr-17 05:30N 47°16' W 122°24'0 0.0
2018-Apr-17 05:00N 47°16' W 122°24'0 0.0
2018-Apr-17 04:30N 47°16' W 122°24'0 0.0
2018-Apr-17 04:00N 47°16' W 122°24'0 0.0
2018-Apr-17 03:30N 47°16' W 122°24'0 0.0
2018-Apr-17 03:00N 47°16' W 122°24'0 0.0
2018-Apr-17 02:30N 47°16' W 122°24'0 0.0
2018-Apr-17 02:00N 47°16' W 122°24'0 0.0
2018-Apr-17 01:30N 47°16' W 122°24'0 0.0
2018-Apr-17 01:00N 47°16' W 122°24'0 0.0
2018-Apr-17 00:30N 47°16' W 122°24'0 0.0
2018-Apr-17 00:00N 47°16' W 122°24'0 0.0
2018-Apr-16 23:24N 47°16' W 122°24'0 0.0
2018-Apr-16 23:00N 47°16' W 122°24'0 0.0
2018-Apr-16 22:24N 47°16' W 122°24'0 0.0
2018-Apr-16 22:00N 47°16' W 122°24'0 0.0
2018-Apr-16 21:30N 47°16' W 122°24'0 0.0
2018-Apr-16 21:00N 47°16' W 122°24'0 0.0
2018-Apr-16 20:30N 47°16' W 122°24'0 0.0
2018-Apr-16 20:00N 47°16' W 122°24'0 0.0
2018-Apr-16 19:30N 47°16' W 122°24'0 0.0
2018-Apr-16 18:54N 47°16' W 122°24'0 0.0
2018-Apr-16 18:30N 47°16' W 122°24'0 0.0
2018-Apr-16 18:00N 47°16' W 122°24'0 0.0
2018-Apr-16 17:30N 47°16' W 122°24'0 0.0
2018-Apr-16 17:00N 47°16' W 122°24'0 0.0
2018-Apr-16 16:24N 47°16' W 122°24'0 0.0
2018-Apr-16 16:01N 47°16' W 122°24'0 0.7
2018-Apr-16 15:31N 47°16' W 122°24'1 2.6
2018-Apr-16 15:00N 47°17' W 122°26'0 0.4
2018-Apr-16 14:30N 47°17' W 122°25'1 1.4
2018-Apr-16 14:00N 47°17' W 122°26'4 7.5
2018-Apr-16 13:31N 47°21' W 122°25'4 8.9
2018-Apr-16 13:01N 47°25' W 122°23'612.1
2018-Apr-16 12:30N 47°31' W 122°26'611.3
2018-Apr-16 12:00N 47°37' W 122°25'4 8.7
2018-Apr-16 11:30N 47°40' W 122°28'612.9
2018-Apr-16 11:00N 47°47' W 122°27'612.5
2018-Apr-16 10:31N 47°53' W 122°29'612.7
2018-Apr-16 10:00N 47°58' W 122°35'713.2
2018-Apr-16 09:30N 48°04' W 122°39'713.9
2018-Apr-16 09:00N 48°10' W 122°44'712.8
2018-Apr-16 08:30N 48°16' W 122°47'612.0
2018-Apr-16 08:00N 48°22' W 122°46'612.3
2018-Apr-16 07:31N 48°28' W 122°44'510.2
2018-Apr-16 07:00N 48°31' W 122°39'3 5.8
2018-Apr-16 06:29N 48°31' W 122°34'0 0.0
2018-Apr-15 19:39N 48°31' W 122°34'0 0.1
2018-Apr-15 19:18N 48°31' W 122°34'0 0.1
2018-Apr-15 18:54N 48°31' W 122°34'0 0.0
2018-Apr-15 18:30N 48°31' W 122°34'0 0.0
2018-Apr-15 18:00N 48°31' W 122°34'0 0.2
2018-Apr-15 16:40N 48°31' W 122°35'0 0.0
2018-Apr-14 08:18N 48°31' W 122°35'0 0.1
2018-Apr-14 08:00N 48°31' W 122°35'0 0.0
2018-Apr-14 06:54N 48°31' W 122°35'0 0.0
2018-Apr-13 14:24N 48°31' W 122°35'0 0.0
2018-Apr-13 14:00N 48°31' W 122°35'0 0.1
2018-Apr-13 13:30N 48°31' W 122°35'8 0.8
2018-Apr-13 04:04N 48°27' W 122°45'111.3
2018-Apr-13 04:00N 48°26' W 122°46'611.5
2018-Apr-13 03:30N 48°22' W 122°52'2411.8
2018-Apr-13 01:29N 48°11' W 123°23'810.2
2018-Apr-13 00:42N 48°13' W 123°34'410.8
2018-Apr-13 00:22N 48°14' W 123°40'1110.9
2018-Apr-12 23:24N 48°14' W 123°56'511.1
2018-Apr-12 23:00N 48°15' W 124°02'612.1
2018-Apr-12 22:30N 48°18' W 124°10'713.6
2018-Apr-12 22:00N 48°21' W 124°19'713.6
2018-Apr-12 21:30N 48°24' W 124°29'713.4
2018-Apr-12 21:00N 48°27' W 124°38'713.1
2018-Apr-12 20:30N 48°28' W 124°47'612.3
2018-Apr-12 20:00N 48°28' W 124°57'611.2
2018-Apr-12 19:30N 48°25' W 125°03'712.4
2018-Apr-12 18:57N 48°19' W 125°08'612.2
2018-Apr-12 18:26N 48°13' W 125°12'9311.6
2018-Apr-12 10:25N 46°41' W 125°30'912.2
2018-Apr-12 09:42N 46°32' W 125°30'211.9
2018-Apr-12 09:30N 46°30' W 125°31'611.9
2018-Apr-12 08:59N 46°24' W 125°31'611.9
2018-Apr-12 08:29N 46°18' W 125°31'611.8
2018-Apr-12 08:00N 46°12' W 125°32'611.8
2018-Apr-12 07:30N 46°06' W 125°33'  

Dump ship's entire track history